sensor_id;sensor_type;location;lat;lon;timestamp;pressure;altitude;pressure_sealevel;temperature
69186;BMP280;56298;49.246;9.410;2022-07-30T00:01:49;99434.81;;;19.58
69186;BMP280;56298;49.246;9.410;2022-07-30T00:04:15;99439.00;;;19.42
69186;BMP280;56298;49.246;9.410;2022-07-30T00:06:41;99440.94;;;19.45
69186;BMP280;56298;49.246;9.410;2022-07-30T00:09:06;99446.91;;;19.44
69186;BMP280;56298;49.246;9.410;2022-07-30T00:11:31;99442.47;;;19.19
69186;BMP280;56298;49.246;9.410;2022-07-30T00:13:57;99442.91;;;19.14
69186;BMP280;56298;49.246;9.410;2022-07-30T00:16:22;99446.88;;;19.13
69186;BMP280;56298;49.246;9.410;2022-07-30T00:18:47;99445.41;;;19.05
69186;BMP280;56298;49.246;9.410;2022-07-30T00:21:13;99442.13;;;19.13
69186;BMP280;56298;49.246;9.410;2022-07-30T00:23:39;99458.00;;;19.13
69186;BMP280;56298;49.246;9.410;2022-07-30T00:26:04;99451.72;;;19.09
69186;BMP280;56298;49.246;9.410;2022-07-30T00:28:29;99455.78;;;18.97
69186;BMP280;56298;49.246;9.410;2022-07-30T00:30:54;99463.94;;;18.77
69186;BMP280;56298;49.246;9.410;2022-07-30T00:33:20;99470.00;;;18.64
69186;BMP280;56298;49.246;9.410;2022-07-30T00:35:45;99475.22;;;18.55
69186;BMP280;56298;49.246;9.410;2022-07-30T00:38:10;99480.84;;;18.44
69186;BMP280;56298;49.246;9.410;2022-07-30T00:40:35;99486.59;;;18.22
69186;BMP280;56298;49.246;9.410;2022-07-30T00:43:01;99486.25;;;18.09
69186;BMP280;56298;49.246;9.410;2022-07-30T00:45:26;99487.81;;;18.18
69186;BMP280;56298;49.246;9.410;2022-07-30T00:47:52;99482.66;;;18.20
69186;BMP280;56298;49.246;9.410;2022-07-30T00:50:17;99476.63;;;18.28
69186;BMP280;56298;49.246;9.410;2022-07-30T00:52:43;99476.66;;;18.25
69186;BMP280;56298;49.246;9.410;2022-07-30T00:55:12;99480.75;;;18.06
69186;BMP280;56298;49.246;9.410;2022-07-30T00:57:38;99474.81;;;18.00
69186;BMP280;56298;49.246;9.410;2022-07-30T01:00:06;99475.22;;;18.02
69186;BMP280;56298;49.246;9.410;2022-07-30T01:02:32;99471.66;;;18.02
69186;BMP280;56298;49.246;9.410;2022-07-30T01:04:58;99468.88;;;18.02
69186;BMP280;56298;49.246;9.410;2022-07-30T01:07:23;99466.56;;;17.89
69186;BMP280;56298;49.246;9.410;2022-07-30T01:09:48;99463.78;;;17.89
69186;BMP280;56298;49.246;9.410;2022-07-30T01:12:16;99467.84;;;17.77
69186;BMP280;56298;49.246;9.410;2022-07-30T01:14:43;99459.16;;;17.68
69186;BMP280;56298;49.246;9.410;2022-07-30T01:17:09;99462.75;;;17.61
69186;BMP280;56298;49.246;9.410;2022-07-30T01:19:36;99454.47;;;17.50
69186;BMP280;56298;49.246;9.410;2022-07-30T01:22:44;99454.09;;;17.52
69186;BMP280;56298;49.246;9.410;2022-07-30T01:28:20;99460.47;;;17.34
69186;BMP280;56298;49.246;9.410;2022-07-30T01:30:47;99454.09;;;17.45
69186;BMP280;56298;49.246;9.410;2022-07-30T01:33:14;99461.59;;;17.48
69186;BMP280;56298;49.246;9.410;2022-07-30T01:35:40;99456.88;;;17.45
69186;BMP280;56298;49.246;9.410;2022-07-30T01:38:08;99447.38;;;17.38
69186;BMP280;56298;49.246;9.410;2022-07-30T01:40:36;99451.75;;;17.36
69186;BMP280;56298;49.246;9.410;2022-07-30T01:43:02;99453.75;;;17.24
69186;BMP280;56298;49.246;9.410;2022-07-30T01:45:29;99454.97;;;17.20
69186;BMP280;56298;49.246;9.410;2022-07-30T01:47:57;99450.97;;;17.24
69186;BMP280;56298;49.246;9.410;2022-07-30T01:50:24;99455.00;;;17.09
69186;BMP280;56298;49.246;9.410;2022-07-30T01:52:51;99455.00;;;17.09
69186;BMP280;56298;49.246;9.410;2022-07-30T01:55:22;99450.63;;;17.11
69186;BMP280;56298;49.246;9.410;2022-07-30T01:57:49;99446.66;;;17.16
69186;BMP280;56298;49.246;9.410;2022-07-30T02:00:15;99451.00;;;17.13
69186;BMP280;56298;49.246;9.410;2022-07-30T02:02:41;99447.47;;;17.13
69186;BMP280;56298;49.246;9.410;2022-07-30T02:05:07;99447.44;;;17.06
69186;BMP280;56298;49.246;9.410;2022-07-30T02:07:48;99446.28;;;17.03
69186;BMP280;56298;49.246;9.410;2022-07-30T02:13:06;99441.56;;;17.04
69186;BMP280;56298;49.246;9.410;2022-07-30T02:15:42;99442.75;;;16.84
69186;BMP280;56298;49.246;9.410;2022-07-30T02:18:11;99439.22;;;16.84
69186;BMP280;56298;49.246;9.410;2022-07-30T02:20:43;99440.38;;;16.90
69186;BMP280;56298;49.246;9.410;2022-07-30T02:23:10;99441.16;;;16.91
69186;BMP280;56298;49.246;9.410;2022-07-30T02:25:41;99441.56;;;17.00
69186;BMP280;56298;49.246;9.410;2022-07-30T02:28:10;99444.34;;;16.89
69186;BMP280;56298;49.246;9.410;2022-07-30T02:30:43;99448.69;;;16.90
69186;BMP280;56298;49.246;9.410;2022-07-30T02:33:09;99453.84;;;16.92
69186;BMP280;56298;49.246;9.410;2022-07-30T02:35:37;99449.50;;;16.94
69186;BMP280;56298;49.246;9.410;2022-07-30T02:38:03;99451.84;;;16.85
69186;BMP280;56298;49.246;9.410;2022-07-30T02:40:29;99470.03;;;16.90
69186;BMP280;56298;49.246;9.410;2022-07-30T02:42:55;99463.31;;;16.87
69186;BMP280;56298;49.246;9.410;2022-07-30T02:45:22;99458.59;;;16.88
69186;BMP280;56298;49.246;9.410;2022-07-30T02:47:52;99468.47;;;16.92
69186;BMP280;56298;49.246;9.410;2022-07-30T02:50:19;99474.03;;;16.89
69186;BMP280;56298;49.246;9.410;2022-07-30T02:52:45;99479.97;;;16.76
69186;BMP280;56298;49.246;9.410;2022-07-30T02:55:12;99489.47;;;16.72
69186;BMP280;56298;49.246;9.410;2022-07-30T02:57:40;99486.69;;;16.75
69186;BMP280;56298;49.246;9.410;2022-07-30T03:00:06;99495.78;;;16.76
69186;BMP280;56298;49.246;9.410;2022-07-30T03:02:33;99486.31;;;16.62
69186;BMP280;56298;49.246;9.410;2022-07-30T03:05:01;99495.38;;;16.59
69186;BMP280;56298;49.246;9.410;2022-07-30T03:07:28;99500.53;;;16.53
69186;BMP280;56298;49.246;9.410;2022-07-30T03:09:55;99498.53;;;16.43
69186;BMP280;56298;49.246;9.410;2022-07-30T03:12:22;99500.53;;;16.39
69186;BMP280;56298;49.246;9.410;2022-07-30T03:14:48;99504.81;;;16.25
69186;BMP280;56298;49.246;9.410;2022-07-30T03:17:15;99500.47;;;16.17
69186;BMP280;56298;49.246;9.410;2022-07-30T03:19:44;99501.94;;;15.86
69186;BMP280;56298;49.246;9.410;2022-07-30T03:22:10;99501.88;;;15.71
69186;BMP280;56298;49.246;9.410;2022-07-30T03:24:37;99507.34;;;15.64
69186;BMP280;56298;49.246;9.410;2022-07-30T03:27:05;99510.44;;;15.51
69186;BMP280;56298;49.246;9.410;2022-07-30T03:29:31;99508.47;;;15.48
69186;BMP280;56298;49.246;9.410;2022-07-30T03:31:57;99509.75;;;15.69
69186;BMP280;56298;49.246;9.410;2022-07-30T03:34:24;99514.06;;;15.59
69186;BMP280;56298;49.246;9.410;2022-07-30T03:36:50;99520.81;;;15.69
69186;BMP280;56298;49.246;9.410;2022-07-30T03:39:16;99519.63;;;15.70
69186;BMP280;56298;49.246;9.410;2022-07-30T03:41:42;99524.38;;;15.70
69186;BMP280;56298;49.246;9.410;2022-07-30T03:44:09;99524.81;;;15.75
69186;BMP280;56298;49.246;9.410;2022-07-30T03:46:36;99529.19;;;15.83
69186;BMP280;56298;49.246;9.410;2022-07-30T03:49:02;99524.88;;;15.90
69186;BMP280;56298;49.246;9.410;2022-07-30T03:51:27;99531.97;;;15.87
69186;BMP280;56298;49.246;9.410;2022-07-30T03:53:53;99535.13;;;15.86
69186;BMP280;56298;49.246;9.410;2022-07-30T03:56:18;99531.13;;;15.76
69186;BMP280;56298;49.246;9.410;2022-07-30T03:58:44;99536.59;;;15.65
69186;BMP280;56298;49.246;9.410;2022-07-30T04:01:09;99540.16;;;15.69
69186;BMP280;56298;49.246;9.410;2022-07-30T04:03:35;99542.50;;;15.60
69186;BMP280;56298;49.246;9.410;2022-07-30T04:06:00;99551.66;;;15.71
69186;BMP280;56298;49.246;9.410;2022-07-30T04:08:29;99544.56;;;15.77
69186;BMP280;56298;49.246;9.410;2022-07-30T04:10:54;99546.91;;;15.72
69186;BMP280;56298;49.246;9.410;2022-07-30T04:13:20;99550.34;;;15.50
69186;BMP280;56298;49.246;9.410;2022-07-30T04:18:18;99562.94;;;15.51
69186;BMP280;56298;49.246;9.410;2022-07-30T04:20:45;99563.81;;;15.59
69186;BMP280;56298;49.246;9.410;2022-07-30T04:23:13;99568.94;;;15.61
69186;BMP280;56298;49.246;9.410;2022-07-30T04:25:41;99567.81;;;15.62
69186;BMP280;56298;49.246;9.410;2022-07-30T04:28:09;99570.19;;;15.67
69186;BMP280;56298;49.246;9.410;2022-07-30T04:30:34;99576.53;;;15.71
69186;BMP280;56298;49.246;9.410;2022-07-30T04:33:01;99583.66;;;15.76
69186;BMP280;56298;49.246;9.410;2022-07-30T04:35:28;99579.72;;;15.77
69186;BMP280;56298;49.246;9.410;2022-07-30T04:37:54;99581.72;;;15.83
69186;BMP280;56298;49.246;9.410;2022-07-30T04:40:19;99589.25;;;15.87
69186;BMP280;56298;49.246;9.410;2022-07-30T04:42:44;99578.66;;;15.96
69186;BMP280;56298;49.246;9.410;2022-07-30T04:45:10;99588.56;;;16.08
69186;BMP280;56298;49.246;9.410;2022-07-30T04:47:35;99586.22;;;16.14
69186;BMP280;56298;49.246;9.410;2022-07-30T04:50:01;99587.81;;;16.22
69186;BMP280;56298;49.246;9.410;2022-07-30T04:52:29;99594.22;;;16.33
69186;BMP280;56298;49.246;9.410;2022-07-30T04:54:57;99599.41;;;16.49
69186;BMP280;56298;49.246;9.410;2022-07-30T04:57:24;99601.78;;;16.58
69186;BMP280;56298;49.246;9.410;2022-07-30T04:59:50;99604.19;;;16.78
69186;BMP280;56298;49.246;9.410;2022-07-30T05:02:17;99601.03;;;16.76
69186;BMP280;56298;49.246;9.410;2022-07-30T05:04:44;99603.41;;;16.84
69186;BMP280;56298;49.246;9.410;2022-07-30T05:07:11;99605.03;;;16.89
69186;BMP280;56298;49.246;9.410;2022-07-30T05:09:38;99604.63;;;16.98
69186;BMP280;56298;49.246;9.410;2022-07-30T05:12:03;99600.66;;;17.17
69186;BMP280;56298;49.246;9.410;2022-07-30T05:14:28;99603.44;;;17.24
69186;BMP280;56298;49.246;9.410;2022-07-30T05:16:54;99612.13;;;17.34
69186;BMP280;56298;49.246;9.410;2022-07-30T05:19:20;99607.41;;;17.31
69186;BMP280;56298;49.246;9.410;2022-07-30T05:21:45;99613.72;;;17.42
69186;BMP280;56298;49.246;9.410;2022-07-30T05:24:11;99609.31;;;17.77
69186;BMP280;56298;49.246;9.410;2022-07-30T05:26:36;99612.34;;;18.12
69186;BMP280;56298;49.246;9.410;2022-07-30T05:29:02;99614.88;;;18.59
69186;BMP280;56298;49.246;9.410;2022-07-30T05:31:27;99614.88;;;19.12
69186;BMP280;56298;49.246;9.410;2022-07-30T05:33:52;99613.31;;;19.87
69186;BMP280;56298;49.246;9.410;2022-07-30T05:36:19;99612.84;;;20.55
69186;BMP280;56298;49.246;9.410;2022-07-30T05:38:45;99609.91;;;20.62
69186;BMP280;56298;49.246;9.410;2022-07-30T05:41:10;99617.69;;;21.22
69186;BMP280;56298;49.246;9.410;2022-07-30T05:43:35;99615.16;;;21.72
69186;BMP280;56298;49.246;9.410;2022-07-30T05:46:01;99611.47;;;22.48
69186;BMP280;56298;49.246;9.410;2022-07-30T05:48:26;99613.25;;;22.75
69186;BMP280;56298;49.246;9.410;2022-07-30T05:50:52;99614.34;;;23.40
69186;BMP280;56298;49.246;9.410;2022-07-30T05:53:18;99606.53;;;23.61
69186;BMP280;56298;49.246;9.410;2022-07-30T05:55:43;99609.28;;;23.90
69186;BMP280;56298;49.246;9.410;2022-07-30T05:58:09;99616.78;;;24.32
69186;BMP280;56298;49.246;9.410;2022-07-30T06:00:34;99606.34;;;25.16
69186;BMP280;56298;49.246;9.410;2022-07-30T06:03:00;99608.22;;;25.41
69186;BMP280;56298;49.246;9.410;2022-07-30T06:05:26;99603.16;;;26.21
69186;BMP280;56298;49.246;9.410;2022-07-30T06:07:52;99610.03;;;26.39
69186;BMP280;56298;49.246;9.410;2022-07-30T06:10:17;99609.31;;;27.65
69186;BMP280;56298;49.246;9.410;2022-07-30T06:12:43;99611.28;;;27.92
69186;BMP280;56298;49.246;9.410;2022-07-30T06:15:11;99612.94;;;28.72
69186;BMP280;56298;49.246;9.410;2022-07-30T06:17:44;99613.81;;;28.78
69186;BMP280;56298;49.246;9.410;2022-07-30T06:20:12;99608.56;;;29.61
69186;BMP280;56298;49.246;9.410;2022-07-30T06:22:37;99608.34;;;30.21
69186;BMP280;56298;49.246;9.410;2022-07-30T06:25:04;99610.75;;;31.01
69186;BMP280;56298;49.246;9.410;2022-07-30T06:27:29;99620.59;;;31.06
69186;BMP280;56298;49.246;9.410;2022-07-30T06:29:54;99617.31;;;31.45
69186;BMP280;56298;49.246;9.410;2022-07-30T06:32:20;99622.06;;;31.60
69186;BMP280;56298;49.246;9.410;2022-07-30T06:34:45;99617.31;;;32.60
69186;BMP280;56298;49.246;9.410;2022-07-30T06:37:10;99621.88;;;32.29
69186;BMP280;56298;49.246;9.410;2022-07-30T06:39:36;99623.53;;;32.81
69186;BMP280;56298;49.246;9.410;2022-07-30T06:42:01;99623.50;;;32.70
69186;BMP280;56298;49.246;9.410;2022-07-30T06:44:26;99633.09;;;32.78
69186;BMP280;56298;49.246;9.410;2022-07-30T06:46:52;99629.75;;;33.42
69186;BMP280;56298;49.246;9.410;2022-07-30T06:49:17;99634.59;;;33.70
69186;BMP280;56298;49.246;9.410;2022-07-30T06:51:42;99634.19;;;34.08
69186;BMP280;56298;49.246;9.410;2022-07-30T06:54:07;99635.66;;;33.39
69186;BMP280;56298;49.246;9.410;2022-07-30T06:56:33;99648.84;;;34.29
69186;BMP280;56298;49.246;9.410;2022-07-30T06:58:58;99636.41;;;34.32
69186;BMP280;56298;49.246;9.410;2022-07-30T07:01:23;99628.94;;;35.01
69186;BMP280;56298;49.246;9.410;2022-07-30T07:03:49;99633.63;;;34.99
69186;BMP280;56298;49.246;9.410;2022-07-30T07:06:14;99640.53;;;35.09
69186;BMP280;56298;49.246;9.410;2022-07-30T07:08:40;99637.09;;;34.44
69186;BMP280;56298;49.246;9.410;2022-07-30T07:11:05;99647.53;;;34.36
69186;BMP280;56298;49.246;9.410;2022-07-30T07:13:30;99644.75;;;34.19
69186;BMP280;56298;49.246;9.410;2022-07-30T07:15:56;99650.91;;;34.76
69186;BMP280;56298;49.246;9.410;2022-07-30T07:18:21;99643.94;;;34.71
69186;BMP280;56298;49.246;9.410;2022-07-30T07:20:47;99653.41;;;33.96
69186;BMP280;56298;49.246;9.410;2022-07-30T07:23:12;99649.91;;;34.26
69186;BMP280;56298;49.246;9.410;2022-07-30T07:25:38;99655.00;;;34.39
69186;BMP280;56298;49.246;9.410;2022-07-30T07:28:04;99649.34;;;33.74
69186;BMP280;56298;49.246;9.410;2022-07-30T07:30:30;99654.72;;;33.83
69186;BMP280;56298;49.246;9.410;2022-07-30T07:32:55;99649.44;;;34.16
69186;BMP280;56298;49.246;9.410;2022-07-30T07:35:20;99663.66;;;34.16
69186;BMP280;56298;49.246;9.410;2022-07-30T07:37:46;99655.31;;;33.48
69186;BMP280;56298;49.246;9.410;2022-07-30T07:40:11;99650.41;;;33.43
69186;BMP280;56298;49.246;9.410;2022-07-30T07:42:37;99644.56;;;34.05
69186;BMP280;56298;49.246;9.410;2022-07-30T07:45:02;99651.03;;;34.00
69186;BMP280;56298;49.246;9.410;2022-07-30T07:47:27;99646.97;;;33.78
69186;BMP280;56298;49.246;9.410;2022-07-30T07:49:54;99644.91;;;33.79
69186;BMP280;56298;49.246;9.410;2022-07-30T07:52:19;99649.38;;;34.27
69186;BMP280;56298;49.246;9.410;2022-07-30T07:54:44;99647.41;;;33.99
69186;BMP280;56298;49.246;9.410;2022-07-30T07:57:10;99646.44;;;34.44
69186;BMP280;56298;49.246;9.410;2022-07-30T07:59:36;99650.88;;;34.34
69186;BMP280;56298;49.246;9.410;2022-07-30T08:02:01;99645.97;;;33.70
69186;BMP280;56298;49.246;9.410;2022-07-30T08:04:26;99640.72;;;33.91
69186;BMP280;56298;49.246;9.410;2022-07-30T08:06:51;99649.31;;;34.39
69186;BMP280;56298;49.246;9.410;2022-07-30T08:09:36;99655.34;;;34.24
69186;BMP280;56298;49.246;9.410;2022-07-30T08:12:01;99651.94;;;34.31
69186;BMP280;56298;49.246;9.410;2022-07-30T08:14:26;99647.22;;;34.39
69186;BMP280;56298;49.246;9.410;2022-07-30T08:16:54;99649.31;;;33.86
69186;BMP280;56298;49.246;9.410;2022-07-30T08:19:19;99649.81;;;33.90
69186;BMP280;56298;49.246;9.410;2022-07-30T08:21:44;99650.47;;;34.13
69186;BMP280;56298;49.246;9.410;2022-07-30T08:24:10;99647.75;;;34.43
69186;BMP280;56298;49.246;9.410;2022-07-30T08:26:35;99645.84;;;34.10
69186;BMP280;56298;49.246;9.410;2022-07-30T08:29:00;99644.03;;;34.54
69186;BMP280;56298;49.246;9.410;2022-07-30T08:31:26;99654.66;;;34.06
69186;BMP280;56298;49.246;9.410;2022-07-30T08:33:51;99650.66;;;34.26
69186;BMP280;56298;49.246;9.410;2022-07-30T08:36:16;99643.78;;;34.88
69186;BMP280;56298;49.246;9.410;2022-07-30T08:38:41;99644.59;;;34.83
69186;BMP280;56298;49.246;9.410;2022-07-30T08:41:07;99654.16;;;35.16
69186;BMP280;56298;49.246;9.410;2022-07-30T08:43:34;99649.84;;;35.09
69186;BMP280;56298;49.246;9.410;2022-07-30T08:46:00;99650.31;;;34.47
69186;BMP280;56298;49.246;9.410;2022-07-30T08:48:27;99646.19;;;34.84
69186;BMP280;56298;49.246;9.410;2022-07-30T08:50:53;99649.38;;;35.05
69186;BMP280;56298;49.246;9.410;2022-07-30T08:53:19;99636.16;;;35.08
69186;BMP280;56298;49.246;9.410;2022-07-30T08:55:44;99652.53;;;34.66
69186;BMP280;56298;49.246;9.410;2022-07-30T08:58:26;99649.69;;;34.12
69186;BMP280;56298;49.246;9.410;2022-07-30T09:00:52;99662.31;;;32.96
69186;BMP280;56298;49.246;9.410;2022-07-30T09:03:18;99640.88;;;33.12
69186;BMP280;56298;49.246;9.410;2022-07-30T09:05:43;99664.75;;;31.88
69186;BMP280;56298;49.246;9.410;2022-07-30T09:08:08;99671.44;;;31.47
69186;BMP280;56298;49.246;9.410;2022-07-30T09:10:34;99656.13;;;31.07
69186;BMP280;56298;49.246;9.410;2022-07-30T09:12:59;99671.94;;;30.67
69186;BMP280;56298;49.246;9.410;2022-07-30T09:15:24;99670.53;;;30.77
69186;BMP280;56298;49.246;9.410;2022-07-30T09:20:21;99650.66;;;30.98
69186;BMP280;56298;49.246;9.410;2022-07-30T09:22:53;99653.72;;;30.47
69186;BMP280;56298;49.246;9.410;2022-07-30T09:25:38;99678.94;;;29.59
69186;BMP280;56298;49.246;9.410;2022-07-30T09:28:06;99666.72;;;30.18
69186;BMP280;56298;49.246;9.410;2022-07-30T09:30:49;99663.69;;;31.16
69186;BMP280;56298;49.246;9.410;2022-07-30T09:33:30;99643.03;;;31.41
69186;BMP280;56298;49.246;9.410;2022-07-30T09:35:55;99647.88;;;31.03
69186;BMP280;56298;49.246;9.410;2022-07-30T09:38:21;99651.53;;;30.83
69186;BMP280;56298;49.246;9.410;2022-07-30T09:40:52;99653.34;;;30.60
69186;BMP280;56298;49.246;9.410;2022-07-30T09:43:17;99670.97;;;30.49
69186;BMP280;56298;49.246;9.410;2022-07-30T09:45:54;99661.38;;;30.67
69186;BMP280;56298;49.246;9.410;2022-07-30T09:48:26;99653.19;;;30.69
69186;BMP280;56298;49.246;9.410;2022-07-30T09:50:55;99661.94;;;30.92
69186;BMP280;56298;49.246;9.410;2022-07-30T09:53:21;99655.38;;;31.06
69186;BMP280;56298;49.246;9.410;2022-07-30T09:55:47;99659.38;;;30.47
69186;BMP280;56298;49.246;9.410;2022-07-30T09:58:12;99653.81;;;30.17
69186;BMP280;56298;49.246;9.410;2022-07-30T10:00:39;99655.88;;;30.17
69186;BMP280;56298;49.246;9.410;2022-07-30T10:05:53;99665.66;;;29.80
69186;BMP280;56298;49.246;9.410;2022-07-30T10:08:19;99666.56;;;30.69
69186;BMP280;56298;49.246;9.410;2022-07-30T10:10:48;99656.28;;;31.56
69186;BMP280;56298;49.246;9.410;2022-07-30T10:13:14;99645.81;;;32.11
69186;BMP280;56298;49.246;9.410;2022-07-30T10:15:40;99652.00;;;32.15
69186;BMP280;56298;49.246;9.410;2022-07-30T10:18:08;99642.41;;;31.26
69186;BMP280;56298;49.246;9.410;2022-07-30T10:20:34;99642.31;;;31.47
69186;BMP280;56298;49.246;9.410;2022-07-30T10:22:59;99650.25;;;31.10
69186;BMP280;56298;49.246;9.410;2022-07-30T10:25:25;99652.72;;;30.97
69186;BMP280;56298;49.246;9.410;2022-07-30T10:27:51;99647.59;;;31.01
69186;BMP280;56298;49.246;9.410;2022-07-30T10:30:17;99655.13;;;31.10
69186;BMP280;56298;49.246;9.410;2022-07-30T10:32:43;99641.75;;;31.10
69186;BMP280;56298;49.246;9.410;2022-07-30T10:35:08;99635.56;;;31.06
69186;BMP280;56298;49.246;9.410;2022-07-30T10:37:36;99638.56;;;30.97
69186;BMP280;56298;49.246;9.410;2022-07-30T10:43:41;99642.09;;;30.66
69186;BMP280;56298;49.246;9.410;2022-07-30T10:46:17;99640.94;;;30.16
69186;BMP280;56298;49.246;9.410;2022-07-30T10:48:46;99647.03;;;29.73
69186;BMP280;56298;49.246;9.410;2022-07-30T10:51:12;99642.94;;;29.74
69186;BMP280;56298;49.246;9.410;2022-07-30T10:53:40;99641.38;;;29.73
69186;BMP280;56298;49.246;9.410;2022-07-30T10:59:02;99635.44;;;30.69
69186;BMP280;56298;49.246;9.410;2022-07-30T11:06:45;99618.16;;;30.46
69186;BMP280;56298;49.246;9.410;2022-07-30T11:09:36;99618.16;;;30.46
69186;BMP280;56298;49.246;9.410;2022-07-30T11:12:03;99632.25;;;31.14
69186;BMP280;56298;49.246;9.410;2022-07-30T11:15:01;99630.28;;;32.06
69186;BMP280;56298;49.246;9.410;2022-07-30T11:18:05;99624.25;;;32.53
69186;BMP280;56298;49.246;9.410;2022-07-30T11:20:32;99627.41;;;32.67
69186;BMP280;56298;49.246;9.410;2022-07-30T11:25:42;99630.50;;;33.48
69186;BMP280;56298;49.246;9.410;2022-07-30T11:28:45;99619.94;;;33.32
69186;BMP280;56298;49.246;9.410;2022-07-30T11:31:41;99613.72;;;32.82
69186;BMP280;56298;49.246;9.410;2022-07-30T11:37:07;99610.53;;;33.71
69186;BMP280;56298;49.246;9.410;2022-07-30T11:42:24;99602.00;;;33.60
69186;BMP280;56298;49.246;9.410;2022-07-30T11:44:49;99605.97;;;33.34
69186;BMP280;56298;49.246;9.410;2022-07-30T11:47:15;99601.84;;;33.24
69186;BMP280;56298;49.246;9.410;2022-07-30T11:49:40;99605.47;;;33.07
69186;BMP280;56298;49.246;9.410;2022-07-30T11:52:07;99594.09;;;32.73
69186;BMP280;56298;49.246;9.410;2022-07-30T11:54:32;99604.44;;;33.05
69186;BMP280;56298;49.246;9.410;2022-07-30T11:56:57;99602.63;;;32.90
69186;BMP280;56298;49.246;9.410;2022-07-30T11:59:23;99601.28;;;32.51
69186;BMP280;56298;49.246;9.410;2022-07-30T12:01:52;99610.00;;;32.25
69186;BMP280;56298;49.246;9.410;2022-07-30T12:04:21;99608.69;;;32.20
69186;BMP280;56298;49.246;9.410;2022-07-30T12:06:47;99611.38;;;32.58
69186;BMP280;56298;49.246;9.410;2022-07-30T12:09:20;99613.69;;;32.71
69186;BMP280;56298;49.246;9.410;2022-07-30T12:11:46;99602.63;;;33.07
69186;BMP280;56298;49.246;9.410;2022-07-30T12:14:11;99587.28;;;33.61
69186;BMP280;56298;49.246;9.410;2022-07-30T12:16:38;99594.53;;;33.57
69186;BMP280;56298;49.246;9.410;2022-07-30T12:19:05;99586.25;;;33.64
69186;BMP280;56298;49.246;9.410;2022-07-30T12:21:31;99589.28;;;33.78
69186;BMP280;56298;49.246;9.410;2022-07-30T12:24:00;99598.72;;;33.27
69186;BMP280;56298;49.246;9.410;2022-07-30T12:26:28;99586.59;;;33.10
69186;BMP280;56298;49.246;9.410;2022-07-30T12:28:58;99585.09;;;32.92
69186;BMP280;56298;49.246;9.410;2022-07-30T12:31:25;99595.66;;;32.97
69186;BMP280;56298;49.246;9.410;2022-07-30T12:33:51;99594.38;;;32.92
69186;BMP280;56298;49.246;9.410;2022-07-30T12:36:24;99588.19;;;32.88
69186;BMP280;56298;49.246;9.410;2022-07-30T12:38:50;99574.44;;;33.26
69186;BMP280;56298;49.246;9.410;2022-07-30T12:41:17;99582.69;;;33.30
69186;BMP280;56298;49.246;9.410;2022-07-30T12:43:53;99586.09;;;32.89
69186;BMP280;56298;49.246;9.410;2022-07-30T12:46:21;99586.31;;;33.30
69186;BMP280;56298;49.246;9.410;2022-07-30T12:48:57;99578.78;;;33.44
69186;BMP280;56298;49.246;9.410;2022-07-30T12:51:27;99581.00;;;33.86
69186;BMP280;56298;49.246;9.410;2022-07-30T12:53:54;99579.47;;;34.26
69186;BMP280;56298;49.246;9.410;2022-07-30T12:56:25;99560.34;;;34.27
69186;BMP280;56298;49.246;9.410;2022-07-30T12:58:51;99560.34;;;34.21
69186;BMP280;56298;49.246;9.410;2022-07-30T13:01:17;99565.78;;;34.25
69186;BMP280;56298;49.246;9.410;2022-07-30T13:03:43;99565.56;;;34.17
69186;BMP280;56298;49.246;9.410;2022-07-30T13:06:19;99566.69;;;33.27
69186;BMP280;56298;49.246;9.410;2022-07-30T13:08:56;99566.19;;;32.60
69186;BMP280;56298;49.246;9.410;2022-07-30T13:11:23;99567.44;;;32.59
69186;BMP280;56298;49.246;9.410;2022-07-30T13:13:49;99564.38;;;32.74
69186;BMP280;56298;49.246;9.410;2022-07-30T13:16:16;99564.41;;;32.97
69186;BMP280;56298;49.246;9.410;2022-07-30T13:18:42;99562.06;;;33.18
69186;BMP280;56298;49.246;9.410;2022-07-30T13:21:08;99556.38;;;32.90
69186;BMP280;56298;49.246;9.410;2022-07-30T13:23:35;99555.59;;;33.12
69186;BMP280;56298;49.246;9.410;2022-07-30T13:26:01;99546.03;;;33.26
69186;BMP280;56298;49.246;9.410;2022-07-30T13:28:27;99548.91;;;32.86
69186;BMP280;56298;49.246;9.410;2022-07-30T13:30:52;99544.25;;;32.78
69186;BMP280;56298;49.246;9.410;2022-07-30T13:33:18;99541.03;;;32.08
69186;BMP280;56298;49.246;9.410;2022-07-30T13:35:43;99541.59;;;32.29
69186;BMP280;56298;49.246;9.410;2022-07-30T13:38:09;99530.81;;;32.56
69186;BMP280;56298;49.246;9.410;2022-07-30T13:40:35;99523.34;;;32.52
69186;BMP280;56298;49.246;9.410;2022-07-30T13:43:01;99533.41;;;32.48
69186;BMP280;56298;49.246;9.410;2022-07-30T13:45:27;99533.16;;;32.74
69186;BMP280;56298;49.246;9.410;2022-07-30T13:47:53;99525.91;;;32.79
69186;BMP280;56298;49.246;9.410;2022-07-30T13:50:19;99531.56;;;33.07
69186;BMP280;56298;49.246;9.410;2022-07-30T13:52:44;99532.03;;;33.40
69186;BMP280;56298;49.246;9.410;2022-07-30T13:55:09;99531.75;;;33.43
69186;BMP280;56298;49.246;9.410;2022-07-30T13:57:35;99525.47;;;33.67
69186;BMP280;56298;49.246;9.410;2022-07-30T14:00:00;99530.88;;;33.65
69186;BMP280;56298;49.246;9.410;2022-07-30T14:02:26;99521.66;;;33.48
69186;BMP280;56298;49.246;9.410;2022-07-30T14:04:52;99525.78;;;33.41
69186;BMP280;56298;49.246;9.410;2022-07-30T14:07:17;99518.84;;;33.31
69186;BMP280;56298;49.246;9.410;2022-07-30T14:09:42;99523.59;;;32.94
69186;BMP280;56298;49.246;9.410;2022-07-30T14:12:08;99526.66;;;32.45
69186;BMP280;56298;49.246;9.410;2022-07-30T14:14:33;99516.88;;;32.69
69186;BMP280;56298;49.246;9.410;2022-07-30T14:16:58;99518.94;;;32.97
69186;BMP280;56298;49.246;9.410;2022-07-30T14:19:24;99520.50;;;32.58
69186;BMP280;56298;49.246;9.410;2022-07-30T14:21:50;99517.09;;;32.20
69186;BMP280;56298;49.246;9.410;2022-07-30T14:24:16;99520.91;;;32.00
69186;BMP280;56298;49.246;9.410;2022-07-30T14:26:42;99518.00;;;31.83
69186;BMP280;56298;49.246;9.410;2022-07-30T14:29:08;99518.47;;;31.76
69186;BMP280;56298;49.246;9.410;2022-07-30T14:31:34;99511.16;;;31.52
69186;BMP280;56298;49.246;9.410;2022-07-30T14:33:59;99505.16;;;31.44
69186;BMP280;56298;49.246;9.410;2022-07-30T14:38:55;99510.78;;;30.89
69186;BMP280;56298;49.246;9.410;2022-07-30T14:41:21;99499.97;;;30.93
69186;BMP280;56298;49.246;9.410;2022-07-30T14:43:47;99506.75;;;31.07
69186;BMP280;56298;49.246;9.410;2022-07-30T14:46:12;99516.47;;;30.95